Time;durP1;ratioP1;P1;durP2;ratioP2;P2;SDS_P1;SDS_P2;PMS_P1;PMS_P2;Temp;Humidity;BMP_temperature;BMP_pressure;BME280_temperature;BME280_humidity;BME280_pressure;Samples;Min_cycle;Max_cycle;Signal;HPM_P1;HPM_P2
2021/07/07 00:00:14;;;;;;;14.13;12.63;;;20.40;88.30;;;;;;4998599;28;20057;-76
2021/07/07 00:02:41;;;;;;;16.17;13.02;;;20.40;88.20;;;;;;4998346;28;20040;-77
2021/07/07 00:05:08;;;;;;;15.88;11.88;;;20.40;88.00;;;;;;5016253;28;20052;-76
2021/07/07 00:07:35;;;;;;;15.27;12.65;;;20.40;89.10;;;;;;4998733;28;20425;-76
2021/07/07 00:10:02;;;;;;;13.90;12.52;;;20.30;88.90;;;;;;5015779;28;20030;-76
2021/07/07 00:12:27;;;;;;;14.73;12.35;;;20.30;89.90;;;;;;5016150;28;20021;-77
2021/07/07 00:14:53;;;;;;;15.90;13.63;;;20.30;88.90;;;;;;4998322;28;20034;-76
2021/07/07 00:17:19;;;;;;;14.43;12.90;;;20.30;89.60;;;;;;5015966;28;20030;-78
2021/07/07 00:19:45;;;;;;;14.07;12.63;;;20.20;89.40;;;;;;5016012;28;20030;-76
2021/07/07 00:22:13;;;;;;;14.15;12.63;;;20.30;89.40;;;;;;5015500;28;20483;-77
2021/07/07 00:24:39;;;;;;;15.00;13.00;;;20.20;89.20;;;;;;5015685;28;20069;-77
2021/07/07 00:27:05;;;;;;;15.75;13.75;;;20.20;89.80;;;;;;5015818;28;20050;-77
2021/07/07 00:29:30;;;;;;;14.80;12.85;;;20.20;91.30;;;;;;5015710;28;20034;-76
2021/07/07 00:31:56;;;;;;;14.32;12.93;;;20.20;91.20;;;;;;4998105;28;20041;-78
2021/07/07 00:34:22;;;;;;;17.95;13.85;;;20.20;91.70;;;;;;4997883;28;20036;-76
2021/07/07 00:36:47;;;;;;;15.32;13.80;;;20.20;91.50;;;;;;5015640;28;20036;-78
2021/07/07 00:39:13;;;;;;;17.42;14.68;;;20.10;92.50;;;;;;4997406;28;20025;-76
2021/07/07 00:41:38;;;;;;;15.38;13.68;;;20.10;92.80;;;;;;5015621;28;20057;-78
2021/07/07 00:44:04;;;;;;;17.15;13.82;;;20.10;91.70;;;;;;5015358;28;20041;-77
2021/07/07 00:46:30;;;;;;;14.27;12.77;;;20.10;92.10;;;;;;4997617;28;20073;-78
2021/07/07 00:48:55;;;;;;;17.23;14.68;;;20.10;92.40;;;;;;5015470;28;20104;-76
2021/07/07 00:51:21;;;;;;;15.68;14.02;;;20.10;92.90;;;;;;4997661;28;20064;-77
2021/07/07 00:53:49;;;;;;;14.95;13.40;;;20.10;93.60;;;;;;4997767;28;20113;-77
2021/07/07 00:56:18;;;;;;;17.23;15.25;;;20.00;93.00;;;;;;4996796;28;20033;-76
2021/07/07 00:58:47;;;;;;;16.92;13.93;;;19.90;94.60;;;;;;4997019;28;20049;-76
2021/07/07 01:01:13;;;;;;;16.23;14.52;;;19.90;94.70;;;;;;4997080;28;20080;-77
2021/07/07 01:03:39;;;;;;;17.65;15.00;;;19.90;95.40;;;;;;4997373;28;20033;-77
2021/07/07 01:06:04;;;;;;;16.90;14.57;;;19.80;96.00;;;;;;5015161;28;20022;-77
2021/07/07 01:08:30;;;;;;;17.13;14.13;;;19.90;96.10;;;;;;5015222;28;20451;-76
2021/07/07 01:10:56;;;;;;;16.60;14.80;;;19.80;96.50;;;;;;5014113;28;20112;-78
2021/07/07 01:13:22;;;;;;;16.27;14.57;;;19.70;96.80;;;;;;4997381;28;20033;-76
2021/07/07 01:15:48;;;;;;;15.65;13.95;;;19.70;97.20;;;;;;4996958;28;20483;-76
2021/07/07 01:18:13;;;;;;;19.30;15.45;;;19.60;97.80;;;;;;4997207;28;20402;-77
2021/07/07 01:20:40;;;;;;;18.23;15.60;;;19.60;97.70;;;;;;4996949;28;20459;-77
2021/07/07 01:23:06;;;;;;;18.10;15.45;;;19.60;97.80;;;;;;4997304;28;20071;-77
2021/07/07 01:25:33;;;;;;;16.83;15.13;;;19.50;97.90;;;;;;5014799;28;20062;-76
2021/07/07 01:28:02;;;;;;;18.15;14.80;;;19.50;98.50;;;;;;4997228;28;20499;-77
2021/07/07 01:30:28;;;;;;;16.92;14.75;;;19.50;98.40;;;;;;5014501;28;20036;-76
2021/07/07 01:32:54;;;;;;;21.13;17.05;;;19.40;98.50;;;;;;5014776;28;20033;-77
2021/07/07 01:35:21;;;;;;;26.00;16.90;;;19.40;99.90;;;;;;4996834;28;20040;-77
2021/07/07 01:37:48;;;;;;;20.63;17.45;;;19.40;99.90;;;;;;5014635;28;20116;-77
2021/07/07 01:40:17;;;;;;;24.13;16.92;;;19.30;99.90;;;;;;5014069;28;20108;-76
2021/07/07 01:42:43;;;;;;;20.92;15.98;;;19.40;99.90;;;;;;4996999;28;20121;-77
2021/07/07 01:45:11;;;;;;;21.70;16.23;;;19.30;99.90;;;;;;4996315;28;20124;-76
2021/07/07 01:47:37;;;;;;;17.83;15.93;;;19.30;99.90;;;;;;5014243;28;20034;-76
2021/07/07 01:50:05;;;;;;;18.90;15.90;;;19.20;99.90;;;;;;4996314;28;20029;-76
2021/07/07 01:52:31;;;;;;;18.67;15.98;;;19.20;99.90;;;;;;4996477;28;20034;-76
2021/07/07 01:54:58;;;;;;;20.70;16.38;;;19.20;99.90;;;;;;5014096;28;20032;-76
2021/07/07 01:57:23;;;;;;;22.17;17.17;;;19.20;99.90;;;;;;4995695;28;20128;-77
2021/07/07 01:59:49;;;;;;;21.15;17.08;;;19.20;99.90;;;;;;4996358;28;20455;-76
2021/07/07 02:02:15;;;;;;;20.35;16.65;;;19.20;99.90;;;;;;4996334;28;20125;-78
2021/07/07 02:04:40;;;;;;;18.70;16.42;;;19.10;99.90;;;;;;5014148;28;20022;-77
2021/07/07 02:07:06;;;;;;;20.00;17.65;;;19.00;99.90;;;;;;4996550;28;20025;-77
2021/07/07 02:09:32;;;;;;;20.63;17.60;;;19.00;99.90;;;;;;4996333;28;20468;-76
2021/07/07 02:11:57;;;;;;;22.30;17.13;;;19.00;99.90;;;;;;5013497;28;20026;-77
2021/07/07 02:14:23;;;;;;;20.30;17.50;;;19.00;99.90;;;;;;5012831;28;20121;-76
2021/07/07 02:16:48;;;;;;;20.33;17.52;;;19.00;99.90;;;;;;5013936;28;20038;-77
2021/07/07 02:19:15;;;;;;;20.38;18.00;;;18.90;99.90;;;;;;4996423;28;20045;-76
2021/07/07 02:21:41;;;;;;;23.38;18.60;;;18.90;99.90;;;;;;5013835;28;20026;-77
2021/07/07 02:24:08;;;;;;;21.80;18.23;;;18.90;99.90;;;;;;4996143;28;20052;-76
2021/07/07 02:26:33;;;;;;;20.52;17.60;;;18.80;99.90;;;;;;5013813;28;20383;-77
2021/07/07 02:28:59;;;;;;;22.70;16.80;;;18.80;99.90;;;;;;4995879;28;20121;-76
2021/07/07 02:31:25;;;;;;;21.70;17.88;;;18.80;99.90;;;;;;5013119;28;20029;-77
2021/07/07 02:33:50;;;;;;;23.45;19.10;;;18.80;99.90;;;;;;4995989;28;20468;-76
2021/07/07 02:36:16;;;;;;;22.23;18.52;;;18.70;99.90;;;;;;4995932;28;20021;-76
2021/07/07 02:38:42;;;;;;;23.33;19.50;;;18.70;99.90;;;;;;4995910;28;20030;-77
2021/07/07 02:41:08;;;;;;;19.67;16.92;;;18.70;99.90;;;;;;5013270;28;20029;-76
2021/07/07 02:43:33;;;;;;;21.95;19.00;;;18.60;99.90;;;;;;5013388;28;20060;-76
2021/07/07 02:45:59;;;;;;;20.50;17.92;;;18.60;99.90;;;;;;4995732;28;20472;-77
2021/07/07 02:48:25;;;;;;;21.45;18.60;;;18.60;99.90;;;;;;5013247;28;20025;-76
2021/07/07 02:50:51;;;;;;;25.25;19.42;;;18.60;99.90;;;;;;4995844;28;20441;-77
2021/07/07 02:53:18;;;;;;;23.00;18.90;;;18.50;99.90;;;;;;5012947;28;20399;-76
2021/07/07 02:55:44;;;;;;;21.55;18.77;;;18.60;99.90;;;;;;5013644;28;20030;-77
2021/07/07 02:58:10;;;;;;;20.45;18.17;;;18.60;99.90;;;;;;4994888;28;20057;-76
2021/07/07 03:00:47;;;;;;;20.10;17.17;;;18.60;99.90;;;;;;5013126;28;20057;-76
2021/07/07 03:03:18;;;;;;;22.25;19.00;;;18.50;99.90;;;;;;5013178;28;20033;-76
2021/07/07 03:05:51;;;;;;;25.05;19.40;;;18.50;99.90;;;;;;4995646;28;20032;-77
2021/07/07 03:08:18;;;;;;;22.90;17.48;;;18.40;99.90;;;;;;5012968;28;20072;-76
2021/07/07 03:10:45;;;;;;;27.35;18.88;;;18.50;99.90;;;;;;5012595;28;20014;-77
2021/07/07 03:13:12;;;;;;;23.40;18.55;;;18.40;99.90;;;;;;5012920;28;20040;-77
2021/07/07 03:15:39;;;;;;;27.38;19.50;;;18.40;99.90;;;;;;4995139;28;20406;-76
2021/07/07 03:18:06;;;;;;;26.55;19.55;;;18.40;99.90;;;;;;4995222;28;20487;-77
2021/07/07 03:20:32;;;;;;;25.77;19.85;;;18.50;99.90;;;;;;5013042;28;20026;-76
2021/07/07 03:22:57;;;;;;;23.30;19.67;;;18.50;99.90;;;;;;5013031;28;20022;-77
2021/07/07 03:25:23;;;;;;;23.27;18.60;;;18.50;99.90;;;;;;4996833;28;20661;-76
2021/07/07 03:27:50;;;;;;;28.17;18.85;;;18.60;99.90;;;;;;4999164;28;20033;-76
2021/07/07 03:30:16;;;;;;;24.65;18.02;;;18.70;99.90;;;;;;4999033;28;20025;-76
2021/07/07 03:32:43;;;;;;;20.92;18.63;;;18.80;99.90;;;;;;4999367;28;20112;-77
2021/07/07 03:35:09;;;;;;;21.48;17.10;;;18.90;99.90;;;;;;4999052;28;20026;-76
2021/07/07 03:37:35;;;;;;;25.27;17.58;;;19.10;99.90;;;;;;5016785;28;20034;-77
2021/07/07 03:40:02;;;;;;;21.67;16.95;;;19.30;99.90;;;;;;5016365;28;20033;-77
2021/07/07 03:42:28;;;;;;;21.13;17.75;;;19.60;99.90;;;;;;4995113;28;20065;-77
2021/07/07 03:44:54;;;;;;;26.40;18.48;;;19.70;99.90;;;;;;4999008;28;20103;-76
2021/07/07 03:47:19;;;;;;;22.05;17.98;;;19.90;99.00;;;;;;4999291;28;20415;-77
2021/07/07 03:49:45;;;;;;;19.33;16.75;;;20.20;97.30;;;;;;4999109;28;20031;-76
2021/07/07 03:52:11;;;;;;;23.30;16.88;;;20.40;96.40;;;;;;5016401;28;20060;-77
2021/07/07 03:54:37;;;;;;;20.60;16.23;;;20.50;95.10;;;;;;5015938;28;20653;-76
2021/07/07 03:57:03;;;;;;;23.30;16.35;;;20.70;92.70;;;;;;5015670;28;20037;-76
2021/07/07 03:59:28;;;;;;;16.20;14.48;;;20.70;92.90;;;;;;5016299;28;20025;-76
2021/07/07 04:01:54;;;;;;;20.52;16.60;;;21.00;91.70;;;;;;4998870;28;20018;-78
2021/07/07 04:04:19;;;;;;;22.23;16.33;;;21.20;90.80;;;;;;4998695;28;20026;-77
2021/07/07 04:06:45;;;;;;;20.45;15.98;;;21.40;89.30;;;;;;4998812;28;20018;-77
2021/07/07 04:09:13;;;;;;;19.48;15.70;;;21.60;88.30;;;;;;4998345;28;20053;-77
2021/07/07 04:11:39;;;;;;;22.08;16.58;;;21.90;87.60;;;;;;4998464;28;20032;-77
2021/07/07 04:14:05;;;;;;;24.50;17.10;;;22.00;86.60;;;;;;5016149;28;20516;-77
2021/07/07 04:16:31;;;;;;;24.92;17.63;;;22.20;86.60;;;;;;5015868;28;20030;-79
2021/07/07 04:18:56;;;;;;;23.88;16.33;;;22.20;86.60;;;;;;4998506;28;20044;-77
2021/07/07 04:21:22;;;;;;;23.65;16.33;;;22.30;86.40;;;;;;5015897;28;20048;-77
2021/07/07 04:23:48;;;;;;;23.83;16.35;;;22.50;85.80;;;;;;4998212;28;20064;-76
2021/07/07 04:26:13;;;;;;;17.75;15.15;;;22.60;85.30;;;;;;5015907;28;20034;-77
2021/07/07 04:28:39;;;;;;;20.45;16.15;;;22.70;85.50;;;;;;5014972;28;20073;-77
2021/07/07 04:31:05;;;;;;;17.73;15.45;;;22.80;84.80;;;;;;5015758;28;20030;-77
2021/07/07 04:33:31;;;;;;;19.65;14.48;;;23.00;85.00;;;;;;5014624;28;20400;-77
2021/07/07 04:35:56;;;;;;;17.88;14.32;;;23.10;84.00;;;;;;5009444;28;20121;-77
2021/07/07 04:38:22;;;;;;;17.42;15.63;;;23.20;84.50;;;;;;5014945;28;20042;-77
2021/07/07 04:40:48;;;;;;;20.55;16.83;;;23.30;83.30;;;;;;4997894;28;20022;-78
2021/07/07 04:43:13;;;;;;;17.27;15.48;;;23.40;83.10;;;;;;5015408;28;20037;-79
2021/07/07 04:45:39;;;;;;;16.52;14.68;;;23.40;82.40;;;;;;5015394;28;20018;-77
2021/07/07 04:48:05;;;;;;;17.95;15.77;;;23.30;80.40;;;;;;5015508;28;20069;-79
2021/07/07 04:50:30;;;;;;;18.52;15.02;;;23.30;80.70;;;;;;5015174;28;20065;-77
2021/07/07 04:52:56;;;;;;;22.02;15.98;;;23.40;81.10;;;;;;4997875;28;20087;-77
2021/07/07 04:55:22;;;;;;;17.33;14.88;;;23.50;81.60;;;;;;4997372;28;20033;-77
2021/07/07 04:57:47;;;;;;;26.67;15.18;;;23.60;79.80;;;;;;4997495;28;20037;-79
2021/07/07 05:00:21;;;;;;;17.08;15.27;;;23.70;80.80;;;;;;5014812;28;20463;-77
2021/07/07 05:02:49;;;;;;;15.43;13.77;;;23.70;79.40;;;;;;4997749;28;20560;-78
2021/07/07 05:05:17;;;;;;;21.65;14.50;;;23.70;78.50;;;;;;5015089;28;20076;-77
2021/07/07 05:07:44;;;;;;;17.17;15.38;;;23.90;83.10;;;;;;5015184;28;20076;-77
2021/07/07 05:10:11;;;;;;;18.15;14.25;;;24.00;83.00;;;;;;4996929;28;20030;-77
2021/07/07 05:12:37;;;;;;;15.38;13.77;;;24.10;82.90;;;;;;5014875;28;20130;-78
2021/07/07 05:15:04;;;;;;;15.18;13.63;;;24.20;82.30;;;;;;4997294;28;20072;-77
2021/07/07 05:17:30;;;;;;;19.05;13.60;;;24.20;83.70;;;;;;4996441;28;20034;-77
2021/07/07 05:19:58;;;;;;;15.45;13.15;;;24.40;80.80;;;;;;5014740;28;20018;-77
2021/07/07 05:22:24;;;;;;;16.50;14.35;;;24.40;80.30;;;;;;5014895;28;20026;-78
2021/07/07 05:24:51;;;;;;;15.38;13.70;;;24.50;81.20;;;;;;4997144;28;20065;-77
2021/07/07 05:27:16;;;;;;;15.38;13.85;;;24.50;80.20;;;;;;4996664;28;20164;-78
2021/07/07 05:29:45;;;;;;;14.63;13.07;;;24.60;80.70;;;;;;5014181;28;20108;-78
2021/07/07 05:32:11;;;;;;;14.05;12.57;;;24.60;77.10;;;;;;5011604;28;20496;-77
2021/07/07 05:34:38;;;;;;;14.70;12.02;;;24.70;74.60;;;;;;4996480;28;20026;-77
2021/07/07 05:37:04;;;;;;;13.88;12.50;;;24.80;74.70;;;;;;5014027;28;20045;-77
2021/07/07 05:39:30;;;;;;;13.35;11.88;;;24.80;74.20;;;;;;4993673;28;20018;-77
2021/07/07 05:41:57;;;;;;;14.45;11.25;;;25.00;75.40;;;;;;4996176;28;20021;-77
2021/07/07 05:44:24;;;;;;;12.00;10.70;;;25.10;72.10;;;;;;5013617;28;20499;-78
2021/07/07 05:46:50;;;;;;;13.60;10.23;;;25.10;70.40;;;;;;4992535;28;20030;-79
2021/07/07 05:49:15;;;;;;;12.10;10.50;;;25.30;69.10;;;;;;5010522;28;20018;-78
2021/07/07 05:51:41;;;;;;;12.85;10.77;;;25.30;66.80;;;;;;5011855;28;20105;-78
2021/07/07 05:54:07;;;;;;;13.40;9.77;;;25.40;66.60;;;;;;5011428;28;20105;-78
2021/07/07 05:56:33;;;;;;;10.35;8.98;;;25.60;65.00;;;;;;5011631;28;20112;-78
2021/07/07 05:58:58;;;;;;;9.50;8.63;;;25.70;62.90;;;;;;4990844;28;20029;-78
2021/07/07 06:01:25;;;;;;;8.88;8.02;;;25.80;62.80;;;;;;4993864;28;20026;-79
2021/07/07 06:03:50;;;;;;;9.25;8.10;;;25.90;61.70;;;;;;4991067;28;20481;-78
2021/07/07 06:06:16;;;;;;;8.35;7.53;;;26.00;59.30;;;;;;4976353;28;20057;-79
2021/07/07 06:08:41;;;;;;;8.43;6.72;;;26.20;58.50;;;;;;4994425;28;20022;-78
2021/07/07 06:11:07;;;;;;;7.05;6.05;;;26.30;58.20;;;;;;4995168;28;20041;-78
2021/07/07 06:13:33;;;;;;;8.18;7.38;;;26.30;56.60;;;;;;5013102;28;20065;-78
2021/07/07 06:15:58;;;;;;;8.35;7.47;;;26.40;56.80;;;;;;4995576;28;20022;-78
2021/07/07 06:18:24;;;;;;;8.98;6.70;;;26.50;57.10;;;;;;4995500;28;20037;-78
2021/07/07 06:20:49;;;;;;;7.90;7.05;;;26.60;56.70;;;;;;5013913;28;20433;-77
2021/07/07 06:23:15;;;;;;;8.52;7.38;;;26.70;56.80;;;;;;5013269;28;20033;-79
2021/07/07 06:25:41;;;;;;;7.95;7.18;;;26.70;56.80;;;;;;4995788;28;20365;-79
2021/07/07 06:28:07;;;;;;;8.38;7.05;;;26.80;57.00;;;;;;5013609;28;20029;-79
2021/07/07 06:30:32;;;;;;;9.45;7.43;;;27.00;57.10;;;;;;5013635;28;20034;-78
2021/07/07 06:33:00;;;;;;;8.93;7.35;;;27.00;56.40;;;;;;5013167;28;20029;-78
2021/07/07 06:35:30;;;;;;;8.82;7.93;;;27.00;56.50;;;;;;4995856;28;20038;-78
2021/07/07 06:37:57;;;;;;;8.43;7.47;;;27.20;56.40;;;;;;5011870;28;20468;-77
2021/07/07 06:40:23;;;;;;;9.80;7.93;;;27.30;56.50;;;;;;4994665;28;20026;-77
2021/07/07 06:42:50;;;;;;;9.00;7.70;;;27.50;57.10;;;;;;5012554;28;20391;-77
2021/07/07 06:45:17;;;;;;;11.77;8.20;;;27.60;56.10;;;;;;4995035;28;20057;-77
2021/07/07 06:47:43;;;;;;;9.00;8.13;;;27.70;56.70;;;;;;4995651;28;20113;-78
2021/07/07 06:50:12;;;;;;;11.15;8.10;;;27.80;55.90;;;;;;5012858;28;20101;-77
2021/07/07 06:52:37;;;;;;;10.70;8.27;;;27.90;54.60;;;;;;5013161;28;20034;-78
2021/07/07 06:55:05;;;;;;;11.52;8.35;;;28.00;55.70;;;;;;5009511;28;20421;-77
2021/07/07 06:57:34;;;;;;;9.77;8.60;;;28.20;56.20;;;;;;5006211;28;20056;-77
2021/07/07 07:00:05;;;;;;;9.43;8.40;;;28.40;56.20;;;;;;5006006;28;20113;-78
2021/07/07 07:02:31;;;;;;;11.80;8.82;;;28.40;55.30;;;;;;5010877;28;20045;-78
2021/07/07 07:04:58;;;;;;;9.55;8.32;;;28.50;54.30;;;;;;5002892;28;20042;-78
2021/07/07 07:07:25;;;;;;;10.73;8.70;;;28.60;54.20;;;;;;5006993;28;20140;-78
2021/07/07 07:09:51;;;;;;;10.48;8.18;;;28.80;54.80;;;;;;5011139;28;20025;-78
2021/07/07 07:12:16;;;;;;;9.07;7.90;;;28.90;54.00;;;;;;5011288;28;20079;-78
2021/07/07 07:14:42;;;;;;;8.80;7.32;;;29.00;54.20;;;;;;4992899;28;20538;-78
2021/07/07 07:17:07;;;;;;;10.85;7.15;;;29.10;52.00;;;;;;5011308;28;20049;-79
2021/07/07 07:19:33;;;;;;;8.63;7.50;;;29.20;50.80;;;;;;4993491;28;20053;-78
2021/07/07 07:21:59;;;;;;;9.90;6.80;;;29.30;50.20;;;;;;4993792;28;20021;-78
2021/07/07 07:24:30;;;;;;;9.23;6.90;;;29.30;49.90;;;;;;4993916;28;20045;-78
2021/07/07 07:26:57;;;;;;;11.68;7.57;;;29.50;49.70;;;;;;5012826;28;20387;-78
2021/07/07 07:29:22;;;;;;;12.10;8.10;;;29.50;49.30;;;;;;4995240;28;20030;-79
2021/07/07 07:31:48;;;;;;;15.98;9.55;;;29.60;49.50;;;;;;5013027;28;20022;-78
2021/07/07 07:34:14;;;;;;;13.52;8.93;;;29.70;49.40;;;;;;5012922;28;20050;-78
2021/07/07 07:36:40;;;;;;;19.08;8.52;;;29.70;48.60;;;;;;4995292;28;20045;-78
2021/07/07 07:39:10;;;;;;;15.80;9.07;;;29.80;49.30;;;;;;4995203;28;20022;-78
2021/07/07 07:41:38;;;;;;;15.77;8.90;;;29.90;49.10;;;;;;4992027;28;20464;-78
2021/07/07 07:44:08;;;;;;;16.98;8.77;;;30.00;49.50;;;;;;4993144;28;20476;-77
2021/07/07 07:46:34;;;;;;;12.23;8.05;;;30.10;49.90;;;;;;4992494;28;20173;-77
2021/07/07 07:49:00;;;;;;;9.52;6.45;;;30.30;49.70;;;;;;4993262;28;20483;-77
2021/07/07 07:51:27;;;;;;;8.45;5.20;;;30.30;48.30;;;;;;5009909;28;20052;-77
2021/07/07 07:53:52;;;;;;;6.05;5.22;;;30.20;46.20;;;;;;4993298;28;20041;-79
2021/07/07 07:56:19;;;;;;;5.07;4.57;;;30.20;46.20;;;;;;5010358;28;20093;-79
2021/07/07 07:58:46;;;;;;;4.97;4.47;;;30.30;46.00;;;;;;5010622;28;20515;-79
2021/07/07 08:01:12;;;;;;;3.45;3.15;;;30.30;45.10;;;;;;5010231;28;20022;-79
2021/07/07 08:03:38;;;;;;;3.03;2.72;;;30.40;43.70;;;;;;4992859;28;20462;-79
2021/07/07 08:06:04;;;;;;;3.72;2.67;;;30.60;42.30;;;;;;5010925;28;20425;-78
2021/07/07 08:08:29;;;;;;;3.95;2.80;;;30.60;41.30;;;;;;5008935;28;20050;-78
2021/07/07 08:10:55;;;;;;;2.97;2.78;;;30.60;40.50;;;;;;5011159;28;20030;-78
2021/07/07 08:13:21;;;;;;;3.72;2.85;;;30.60;40.80;;;;;;4994290;28;20483;-79
2021/07/07 08:15:47;;;;;;;4.13;3.83;;;30.60;41.10;;;;;;5014030;28;20033;-79
2021/07/07 08:18:12;;;;;;;5.47;4.00;;;30.50;41.60;;;;;;5013753;28;20577;-78
2021/07/07 08:20:39;;;;;;;3.70;3.40;;;30.60;42.30;;;;;;4995868;28;20026;-79
2021/07/07 08:23:05;;;;;;;3.60;3.30;;;30.70;42.90;;;;;;5014040;28;20387;-78
2021/07/07 08:25:30;;;;;;;3.45;3.13;;;30.80;43.10;;;;;;4995922;28;20018;-79
2021/07/07 08:27:56;;;;;;;4.28;3.38;;;31.00;42.50;;;;;;4996502;28;20057;-79
2021/07/07 08:30:23;;;;;;;5.57;3.08;;;31.20;43.50;;;;;;4993038;28;20022;-77
2021/07/07 08:32:49;;;;;;;3.05;2.80;;;31.10;41.50;;;;;;4994551;28;20479;-79
2021/07/07 08:35:15;;;;;;;3.47;2.80;;;31.20;40.20;;;;;;4995676;28;20018;-79
2021/07/07 08:37:42;;;;;;;3.38;3.08;;;31.30;39.00;;;;;;5007522;28;20037;-76
2021/07/07 08:40:09;;;;;;;2.58;2.40;;;31.40;39.60;;;;;;5013252;28;20121;-76
2021/07/07 08:42:41;;;;;;;2.78;2.58;;;31.50;40.80;;;;;;5011968;28;20022;-75
2021/07/07 08:45:10;;;;;;;2.72;2.53;;;31.50;39.30;;;;;;4995543;28;20034;-76
2021/07/07 08:47:38;;;;;;;2.75;2.55;;;31.60;38.80;;;;;;5010359;28;20048;-76
2021/07/07 08:50:07;;;;;;;3.13;2.47;;;31.70;39.10;;;;;;4995858;28;20072;-79
2021/07/07 08:52:32;;;;;;;4.30;3.55;;;31.90;38.90;;;;;;4990974;28;20030;-78
2021/07/07 08:54:58;;;;;;;6.55;3.08;;;32.00;39.80;;;;;;4995522;28;20037;-79
2021/07/07 08:57:24;;;;;;;2.97;2.20;;;31.80;39.50;;;;;;4993877;28;20464;-78
2021/07/07 08:59:50;;;;;;;2.47;2.28;;;31.90;39.80;;;;;;4995015;28;20038;-78
2021/07/07 09:02:16;;;;;;;3.22;1.85;;;31.80;38.30;;;;;;5012153;28;20088;-79
2021/07/07 09:04:44;;;;;;;3.85;1.90;;;32.00;37.70;;;;;;4994688;28;20125;-75
2021/07/07 09:07:18;;;;;;;3.67;2.65;;;32.00;36.70;;;;;;4995745;28;20018;-79
2021/07/07 09:09:46;;;;;;;3.17;2.42;;;31.80;36.90;;;;;;5010729;28;20034;-76
2021/07/07 09:12:25;;;;;;;3.28;2.15;;;31.90;38.20;;;;;;4995182;28;20044;-76
2021/07/07 09:15:22;;;;;;;2.95;2.60;;;31.90;37.00;;;;;;4994879;28;20068;-75
2021/07/07 09:17:50;;;;;;;3.00;2.60;;;31.90;37.90;;;;;;4994193;28;20053;-75
2021/07/07 09:20:34;;;;;;;2.40;2.20;;;31.80;38.40;;;;;;5010923;28;20038;-75
2021/07/07 09:23:23;;;;;;;4.32;2.30;;;31.90;39.40;;;;;;5012806;28;20049;-76
2021/07/07 09:25:49;;;;;;;1.92;1.77;;;31.80;39.80;;;;;;5013353;28;20034;-75
2021/07/07 09:28:23;;;;;;;3.05;2.22;;;31.80;38.00;;;;;;4995452;28;20105;-76
2021/07/07 09:30:50;;;;;;;4.75;2.22;;;32.10;37.50;;;;;;5012525;28;20030;-78
2021/07/07 09:33:17;;;;;;;3.55;2.45;;;32.20;39.10;;;;;;5012529;28;20014;-78
2021/07/07 09:35:43;;;;;;;2.78;2.50;;;32.10;37.90;;;;;;4995346;28;20080;-78
2021/07/07 09:38:09;;;;;;;3.72;2.45;;;32.20;38.40;;;;;;4999711;28;20029;-78
2021/07/07 09:40:41;;;;;;;3.53;3.22;;;32.10;38.30;;;;;;5011458;28;20034;-78
2021/07/07 09:43:07;;;;;;;7.85;3.38;;;32.20;38.40;;;;;;4996086;28;20068;-78
2021/07/07 09:45:33;;;;;;;6.47;2.80;;;32.50;38.60;;;;;;5013116;28;20033;-78
2021/07/07 09:48:00;;;;;;;4.00;2.90;;;32.20;37.20;;;;;;4995818;28;20439;-78
2021/07/07 09:50:26;;;;;;;3.08;2.88;;;32.00;38.40;;;;;;5014081;28;20106;-78
2021/07/07 09:52:52;;;;;;;4.78;3.00;;;31.80;38.10;;;;;;5014775;28;20104;-78
2021/07/07 09:55:18;;;;;;;5.53;3.13;;;31.80;38.10;;;;;;4996709;28;20018;-78
2021/07/07 09:57:45;;;;;;;3.42;3.13;;;31.80;37.10;;;;;;5014279;28;20118;-78
2021/07/07 10:00:19;;;;;;;5.80;3.42;;;31.70;37.50;;;;;;4996410;28;20088;-78
2021/07/07 10:02:52;;;;;;;3.70;3.40;;;31.70;38.80;;;;;;5014347;28;20041;-78
2021/07/07 10:05:19;;;;;;;5.80;3.60;;;31.90;37.80;;;;;;5014001;28;20021;-78
2021/07/07 10:07:45;;;;;;;3.67;3.00;;;32.10;37.40;;;;;;4996387;28;20029;-78
2021/07/07 10:10:13;;;;;;;3.33;3.03;;;32.20;38.00;;;;;;4996399;28;20025;-78
2021/07/07 10:12:42;;;;;;;8.70;3.60;;;31.90;38.50;;;;;;4996661;28;20480;-78
2021/07/07 10:15:08;;;;;;;3.78;3.30;;;31.70;38.50;;;;;;5004289;28;20034;-77
2021/07/07 10:17:34;;;;;;;3.92;3.40;;;31.50;39.10;;;;;;5013653;28;20103;-78
2021/07/07 10:20:00;;;;;;;7.82;3.00;;;31.40;39.90;;;;;;5013932;28;20030;-77
2021/07/07 10:22:26;;;;;;;3.53;3.00;;;31.40;39.90;;;;;;5013836;28;20097;-77
2021/07/07 10:24:52;;;;;;;4.25;3.17;;;31.30;39.30;;;;;;5013861;28;20022;-77
2021/07/07 10:27:19;;;;;;;5.28;3.08;;;31.30;40.30;;;;;;5013829;28;20014;-78
2021/07/07 10:29:45;;;;;;;5.38;3.33;;;31.40;41.10;;;;;;5013495;28;20030;-78
2021/07/07 10:32:16;;;;;;;5.55;3.53;;;31.20;39.60;;;;;;5013631;28;20033;-77
2021/07/07 10:34:42;;;;;;;4.20;3.50;;;31.00;39.90;;;;;;5013216;28;20054;-77
2021/07/07 10:37:07;;;;;;;4.68;3.72;;;31.00;39.60;;;;;;4995912;28;20103;-78
2021/07/07 10:39:33;;;;;;;5.53;3.67;;;31.10;40.80;;;;;;5013574;28;20033;-77
2021/07/07 10:42:02;;;;;;;5.82;3.80;;;31.40;42.00;;;;;;5013478;28;20030;-77
2021/07/07 10:44:28;;;;;;;4.63;3.60;;;31.80;39.70;;;;;;5009292;28;20025;-77
2021/07/07 10:46:59;;;;;;;3.17;2.90;;;32.20;40.10;;;;;;4993641;28;20042;-75
2021/07/07 10:49:32;;;;;;;3.60;3.30;;;32.40;37.70;;;;;;4993072;28;20109;-75
2021/07/07 10:51:59;;;;;;;4.28;3.40;;;32.50;37.30;;;;;;5011241;28;20053;-76
2021/07/07 10:54:32;;;;;;;3.92;3.20;;;32.40;36.60;;;;;;4993010;28;20022;-75
2021/07/07 10:56:59;;;;;;;3.22;2.85;;;32.80;37.10;;;;;;4991662;28;20041;-74
2021/07/07 10:59:35;;;;;;;3.65;2.88;;;32.80;35.50;;;;;;5008518;28;20084;-75
2021/07/07 11:02:07;;;;;;;4.35;3.22;;;33.10;35.90;;;;;;5011145;28;20550;-78
2021/07/07 11:04:36;;;;;;;4.53;3.20;;;33.30;36.50;;;;;;4991443;28;20030;-78
2021/07/07 11:07:34;;;;;;;5.60;3.45;;;33.30;35.90;;;;;;5010285;28;20037;-78
2021/07/07 11:10:15;;;;;;;5.75;3.75;;;33.40;35.80;;;;;;4993247;28;20096;-78
2021/07/07 11:12:41;;;;;;;4.68;2.88;;;33.40;36.40;;;;;;4992940;28;20026;-78
2021/07/07 11:15:16;;;;;;;4.40;3.13;;;33.00;36.10;;;;;;4992018;28;20317;-78
2021/07/07 11:17:53;;;;;;;3.83;3.15;;;32.60;37.40;;;;;;5009902;28;20041;-78
2021/07/07 11:20:22;;;;;;;5.45;3.30;;;32.50;37.50;;;;;;5009535;28;20030;-78
2021/07/07 11:23:06;;;;;;;3.10;2.90;;;32.30;37.30;;;;;;5010618;28;20084;-77
2021/07/07 11:25:34;;;;;;;3.00;2.80;;;32.20;37.30;;;;;;5010563;28;20138;-77
2021/07/07 11:28:01;;;;;;;5.07;3.33;;;32.30;37.70;;;;;;5010929;28;20026;-77
2021/07/07 11:30:27;;;;;;;3.80;3.40;;;32.30;38.20;;;;;;5009702;28;20022;-75
2021/07/07 11:32:56;;;;;;;4.28;3.90;;;32.30;38.10;;;;;;5010252;28;20057;-74
2021/07/07 11:35:33;;;;;;;3.45;3.10;;;32.20;38.60;;;;;;5008894;28;20018;-75
2021/07/07 11:38:06;;;;;;;3.60;3.35;;;32.20;38.90;;;;;;5010907;28;20038;-77
2021/07/07 11:40:34;;;;;;;4.95;3.55;;;32.60;38.30;;;;;;5003695;28;20553;-78
2021/07/07 11:43:06;;;;;;;3.72;3.22;;;32.90;37.90;;;;;;4988673;28;20050;-77
2021/07/07 11:45:45;;;;;;;6.03;3.45;;;33.10;38.20;;;;;;4991860;28;20049;-78
2021/07/07 11:48:17;;;;;;;4.13;3.42;;;33.10;37.30;;;;;;4997344;28;20498;-78
2021/07/07 11:50:50;;;;;;;3.55;3.22;;;33.10;36.60;;;;;;4997400;28;20124;-78
2021/07/07 11:53:17;;;;;;;4.25;3.00;;;33.20;36.90;;;;;;4996491;28;20109;-78
2021/07/07 11:55:44;;;;;;;4.85;3.00;;;33.30;37.50;;;;;;5014097;28;20492;-78
2021/07/07 11:58:11;;;;;;;3.70;3.40;;;33.00;36.90;;;;;;5014526;28;20439;-78
2021/07/07 12:00:38;;;;;;;6.07;3.22;;;32.80;37.10;;;;;;4995949;28;20380;-78
2021/07/07 12:03:03;;;;;;;4.10;2.83;;;32.70;37.40;;;;;;4997244;28;20488;-78
2021/07/07 12:05:29;;;;;;;3.20;2.92;;;32.80;37.70;;;;;;4996236;28;20056;-79
2021/07/07 12:08:14;;;;;;;3.15;2.67;;;32.90;35.60;;;;;;5014330;28;20048;-78
2021/07/07 12:10:40;;;;;;;3.63;2.92;;;33.00;35.80;;;;;;4996164;28;20030;-78
2021/07/07 12:13:29;;;;;;;3.05;2.85;;;33.30;35.70;;;;;;5014833;28;20053;-78
2021/07/07 12:16:14;;;;;;;3.97;3.30;;;33.80;35.90;;;;;;4996719;28;20091;-78
2021/07/07 12:18:40;;;;;;;3.90;3.17;;;33.80;33.50;;;;;;4996112;28;20084;-79
2021/07/07 12:21:06;;;;;;;3.58;3.28;;;33.80;33.60;;;;;;5013922;28;20066;-79
2021/07/07 12:23:44;;;;;;;4.97;3.20;;;33.90;35.20;;;;;;5013579;28;20104;-79
2021/07/07 12:26:10;;;;;;;3.67;3.38;;;34.00;35.40;;;;;;5014114;28;20045;-79
2021/07/07 12:28:35;;;;;;;5.68;2.85;;;34.00;35.30;;;;;;5013562;28;20549;-79
2021/07/07 12:31:01;;;;;;;4.68;3.00;;;33.80;35.20;;;;;;5013528;28;20045;-79
2021/07/07 12:33:31;;;;;;;3.72;3.42;;;33.70;36.20;;;;;;4995638;28;20021;-78
2021/07/07 12:35:57;;;;;;;5.10;3.42;;;33.60;36.60;;;;;;5013553;28;20038;-79